Weather observations for the past three days for
Golovin, Golovin Airport
Imperial (Metric)
Date Time (akdt) Wind (mph) Vis. (mi.) Weather Sky Cond. Temperature (ºF) Relative Humidity Wind Chill (°F) Heat Index (°F) Pressure Precipitation (in)
Air Dwpt 6 hour altimeter (in) sea level (mb) 1 hr 3 hr 6 hr
Max. Min.
08 01:56 N 6 10.00 Fair CLR 23 16 74% 17 30.11 1019.3
08 00:56 N 7 10.00 Fair CLR 26.1 17.1 69% 19 30.12 1019.6
07 23:56 NE 6 10.00 Fair CLR 25 18 75% 19 30.12 1019.6
07 22:56 N 6 10.00 Overcast OVC040 28.9 19 66% 23 30.13 1019.8
07 21:56 N 7 10.00 Overcast OVC036 30 19 30.9 28 64% 24 30.13 1019.8
07 20:56 NE 7 10.00 Overcast OVC034 30 18 61% 24 30.13 1019.9
07 19:56 NE 9 10.00 Overcast OVC034 30 19 64% 22 30.14 1020.1
07 18:56 S 6 10.00 Overcast OVC034 28 21.9 78% 22 30.14 1020.2
07 17:56 S 10 10.00 Overcast OVC036 28 21.9 78% 19 30.14 1020.3
07 16:56 NE 9 10.00 Overcast OVC034 30 18 61% 22 30.14 1020.3
07 15:56 Calm 10.00 Overcast OVC032 30 19.9 30 21.9 66% 30.15 1020.6
07 14:56 Vrbl 5 10.00 Overcast OVC028 28.9 19.9 69% 25 30.15 1020.7
07 13:56 NW 6 10.00 Overcast BKN028 OVC060 28 19 69% 22 30.16 1020.7
07 12:56 NW 6 10.00 Overcast SCT022 OVC060 26.1 19 75% 20 30.16 1020.7
07 11:56 Vrbl 5 10.00 Overcast OVC065 26.1 19 75% 21 30.17 1021.1
07 10:56 Vrbl 6 10.00 Overcast OVC070 24.1 18 77% 18 30.17 1021.0
07 09:56 NW 6 10.00 Overcast SCT060 OVC070 21.9 17.1 21.9 18 82% 15 30.17 1021.1
07 08:56 NW 5 10.00 Overcast OVC080 21 17.1 85% 15 30.16 1021.0
07 07:56 NW 6 10.00 Mostly Cloudy BKN100 19 15.1 84% 12 30.16 1020.9
07 06:56 NW 6 10.00 Partly Cloudy SCT100 18 15.1 88% 11 30.15 1020.7
07 05:56 NW 5 10.00 Fair CLR 19 16 88% 13 30.16 1020.7
07 04:56 N 5 10.00 Fair CLR 19.9 15.1 81% 14 30.15 1020.4
07 03:56 Calm 10.00 Fair CLR 21 15.1 30 21 78% 30.15 1020.4
07 02:56 N 5 10.00 Fair CLR 21 17.1 85% 15 30.14 1020.3
07 01:56 NW 7 10.00 Fair CLR 23 18 81% 16 30.13 1020.0
07 00:56 NE 8 10.00 Fair CLR 24.1 17.1 75% 16 30.13 1019.7
06 23:56 N 12 10.00 Fair CLR 26.1 19.9 78% 16 30.11 1019.3
06 22:56 N 10 10.00 Fair CLR 28 19.9 72% 19 30.1 1018.9
06 21:56 W 3 10.00 Overcast BKN042 OVC050 30 26.1 34 30 85% 30.1 1018.7
06 20:56 W 9 G 16 10.00 Overcast OVC050 30 25 82% 22 30.09 1018.6
06 19:56 W 8 10.00 Overcast OVC050 30.9 24.1 76% 24 30.09 1018.4
06 18:56 W 12 10.00 Overcast OVC050 33.1 24.1 70% 25 30.08 1018.1
06 17:56 W 8 10.00 Overcast OVC050 33.1 23 66% 27 30.08 1018.0
06 16:56 W 12 10.00 Overcast OVC050 33.1 21 61% 25 30.08 1018.1
06 15:56 Vrbl 7 10.00 A Few Clouds FEW048 33.1 19.9 34 26.1 58% 28 30.08 1018.2
06 14:56 Vrbl 3 10.00 Fair CLR 33.1 21.9 64% 30.08 1018.1
06 13:56 Vrbl 5 10.00 Fair CLR 34 19.9 56% 30 30.08 1018.1
06 12:56 W 6 10.00 Fair CLR 33.1 19 56% 28 30.07 1017.9
06 11:56 W 5 10.00 Fair CLR 30 21 69% 26 30.07 1017.7
06 10:56 W 5 10.00 Overcast OVC028 28 21 75% 24 30.07 1017.7
06 09:56 NW 3 10.00 Fair CLR 26.1 21.9 26.1 21 84% 30.06 1017.5
06 08:56 N 3 10.00 Overcast OVC031 21.9 19.9 92% 30.05 1017.2
06 07:56 W 6 10.00 Overcast OVC031 21 19 92% 14 30.04 1016.8
06 06:56 W 5 10.00 Overcast OVC031 21.9 19.9 92% 16 30.03 1016.4
06 05:56 Calm 10.00 Overcast OVC031 23 19.9 88% 30.02 1016.0
06 04:56 Calm 10.00 Overcast OVC033 24.1 19.9 84% 30.01 1015.8
06 03:56 NW 5 10.00 Overcast OVC033 23 19.9 32 23 88% 18 30 1015.5
06 02:56 NW 5 10.00 Partly Cloudy SCT033 24.1 21 88% 19 30 1015.3
06 01:56 NW 6 10.00 Fair CLR 25 21 85% 19 29.99 1015.1
06 00:56 NW 8 10.00 Fair CLR 26.1 21.9 84% 18 29.98 1014.7
05 23:56 NW 8 10.00 Fair CLR 28 21.9 78% 21 29.97 1014.3
05 22:56 NW 7 10.00 Fair CLR 30 24.1 79% 24 29.96 1014.0
05 21:56 NW 7 10.00 Fair CLR 32 25 35.1 32 75% 26 29.94 1013.5
05 20:56 NW 6 10.00 Fair CLR 33.1 25 72% 28 29.94 1013.3
05 19:56 NW 7 10.00 Fair CLR 35.1 23 61% 30 29.93 1013.2
05 18:56 W 9 10.00 Fair CLR 35.1 25 67% 29 29.92 1012.9
05 17:56 W 12 10.00 Fair CLR 35.1 25 67% 28 29.91 1012.5
05 16:56 W 7 10.00 Fair CLR 35.1 24.1 64% 30 29.91 1012.5
05 15:56 W 10 G 16 10.00 Fair CLR 33.1 23 34 27 66% 26 29.92 1012.6
05 14:56 W 10 10.00 Fair CLR 33.1 24.1 70% 26 29.92 1012.7
05 13:56 W 8 10.00 Fair CLR 33.1 24.1 70% 27 29.92 1012.6
05 12:56 W 7 10.00 Fair CLR 30.9 23 72% 25 29.91 1012.5
05 11:56 W 6 10.00 Fair CLR 30.9 21.9 69% 26 29.91 1012.5
05 10:56 NW 8 10.00 Fair CLR 28.9 21 72% 22 29.91 1012.5
05 09:56 NW 10 10.00 Fair CLR 28 21 28 21 75% 19 29.92 1012.7
05 08:56 NW 12 10.00 Fair CLR 26.1 19.9 78% 16 29.91 1012.4
05 07:56 N 12 10.00 Fair CLR 24.1 19.9 84% 14 29.9 1012.2
05 06:56 N 6 10.00 Fair CLR 21.9 18 85% 15 29.91 1012.3
05 05:56 N 9 10.00 Fair CLR 23 18 81% 14 29.9 1012.0
05 04:56 NW 6 10.00 Fair CLR 24.1 19 81% 18 29.9 1012.1
05 03:56 N 12 10.00 Fair CLR 25 19 34 25 78% 15 29.9 1011.9
05 02:56 N 10 10.00 Fair CLR 26.1 19.9 78% 17 29.9 1012.0
Date Time (akdt) Wind (mph) Vis. (mi.) Weather Sky Cond. Air Dwpt Max. Min. Relative Humidity Wind Chill (°F) Heat Index (°F) altimeter (in) sea level (mb) 1 hr 3 hr 6 hr
6 hour
Temperature (ºF) Pressure Precipitation (in)